Time,TemperatureF,DewpointF,PressureIn,WindDirection,WindDirectionDegrees,WindSpeedMPH,WindSpeedGustMPH,Humidity,HourlyPrecipIn,Conditions,Clouds,dailyrainin,SoftwareType,DateUTC
2013-03-24 00:02:00,32.7,14.7,29.88,WSW,248,2.0,4.0,47,0.00,,,0.00,meteohub,2013-03-24 04:02:00,
2013-03-24 00:07:00,32.5,14.5,29.88,South,180,0.0,4.0,47,0.00,,,0.00,meteohub,2013-03-24 04:07:00,
2013-03-24 00:12:00,32.5,14.5,29.88,WNW,292,1.0,4.0,47,0.00,,,0.00,meteohub,2013-03-24 04:12:00,
2013-03-24 00:17:00,32.5,14.5,29.88,WSW,248,2.0,4.0,47,0.00,,,0.00,meteohub,2013-03-24 04:17:00,
2013-03-24 00:22:00,32.5,14.5,29.88,SSW,202,2.0,4.0,47,0.00,,,0.00,meteohub,2013-03-24 04:22:00,
2013-03-24 00:32:00,32.2,14.7,29.88,WSW,248,2.0,4.0,48,0.00,,,0.00,meteohub,2013-03-24 04:32:00,
2013-03-24 00:37:00,32.0,14.5,29.88,West,270,0.0,4.0,48,0.00,,,0.00,meteohub,2013-03-24 04:37:00,
2013-03-24 00:42:00,31.6,14.2,29.88,West,270,2.0,3.0,48,0.00,,,0.00,meteohub,2013-03-24 04:42:00,
2013-03-24 00:47:00,31.5,14.0,29.88,SW,225,2.0,3.0,48,0.00,,,0.00,meteohub,2013-03-24 04:47:00,
2013-03-24 00:52:00,31.5,14.0,29.88,West,270,2.0,3.0,48,0.00,,,0.00,meteohub,2013-03-24 04:52:00,
2013-03-24 00:57:00,31.3,13.8,29.88,South,180,0.0,3.0,48,0.00,,,0.00,meteohub,2013-03-24 04:57:00,
2013-03-24 01:02:00,31.3,13.8,29.88,WSW,248,2.0,3.0,48,0.00,,,0.00,meteohub,2013-03-24 05:02:00,
2013-03-24 01:07:00,31.1,13.8,29.88,SW,225,0.0,3.0,48,0.00,,,0.00,meteohub,2013-03-24 05:07:00,
2013-03-24 01:12:00,30.9,14.0,29.88,West,270,3.0,3.0,49,0.00,,,0.00,meteohub,2013-03-24 05:12:00,
2013-03-24 01:17:00,30.9,14.0,29.88,SW,225,2.0,3.0,49,0.00,,,0.00,meteohub,2013-03-24 05:17:00,
2013-03-24 01:27:00,30.7,13.8,29.88,WSW,248,2.0,4.0,49,0.00,,,0.00,meteohub,2013-03-24 05:27:00,
2013-03-24 01:32:00,30.7,13.8,29.88,SW,225,1.0,3.0,49,0.00,,,0.00,meteohub,2013-03-24 05:32:00,
2013-03-24 01:37:00,30.6,14.2,29.88,West,270,0.0,3.0,50,0.00,,,0.00,meteohub,2013-03-24 05:37:00,
2013-03-24 01:42:00,30.4,14.0,29.88,WSW,248,1.0,3.0,50,0.00,,,0.00,meteohub,2013-03-24 05:42:00,
2013-03-24 01:47:00,30.2,14.4,29.88,WSW,248,2.0,3.0,51,0.00,,,0.00,meteohub,2013-03-24 05:47:00,
2013-03-24 01:52:00,30.2,14.4,29.88,SW,225,3.0,4.0,51,0.00,,,0.00,meteohub,2013-03-24 05:52:00,
2013-03-24 01:57:00,30.2,14.4,29.88,SW,225,0.0,4.0,51,0.00,,,0.00,meteohub,2013-03-24 05:57:00,
2013-03-24 02:02:00,30.2,14.4,29.88,WSW,248,2.0,4.0,51,0.00,,,0.00,meteohub,2013-03-24 06:02:00,
2013-03-24 02:07:00,30.2,14.4,29.88,WSW,248,2.0,4.0,51,0.00,,,0.00,meteohub,2013-03-24 06:07:00,
2013-03-24 02:12:00,30.4,14.4,29.88,WNW,292,1.0,4.0,51,0.00,,,0.00,meteohub,2013-03-24 06:12:00,
2013-03-24 02:17:00,30.4,14.4,29.88,WSW,248,3.0,5.0,51,0.00,,,0.00,meteohub,2013-03-24 06:17:00,
2013-03-24 02:22:00,30.6,14.5,29.88,WNW,292,3.0,6.0,51,0.00,,,0.00,meteohub,2013-03-24 06:22:00,
2013-03-24 02:27:00,30.6,14.5,29.85,SSW,202,3.0,6.0,51,0.00,,,0.00,meteohub,2013-03-24 06:27:00,
2013-03-24 02:32:00,30.7,15.3,29.85,West,270,3.0,6.0,52,0.00,,,0.00,meteohub,2013-03-24 06:32:00,
2013-03-24 02:37:00,30.7,15.3,29.85,NNW,338,2.0,6.0,52,0.00,,,0.00,meteohub,2013-03-24 06:37:00,
2013-03-24 02:42:00,30.7,15.3,29.85,WSW,248,2.0,7.0,52,0.00,,,0.00,meteohub,2013-03-24 06:42:00,
2013-03-24 02:47:00,30.6,15.1,29.85,NE,45,2.0,7.0,52,0.00,,,0.00,meteohub,2013-03-24 06:47:00,
2013-03-24 02:52:00,30.6,15.1,29.85,SW,225,3.0,6.0,52,0.00,,,0.00,meteohub,2013-03-24 06:52:00,
2013-03-24 02:57:00,30.4,14.9,29.85,SW,225,4.0,5.0,52,0.00,,,0.00,meteohub,2013-03-24 06:57:00,
2013-03-24 03:02:00,30.2,15.1,29.85,WSW,248,4.0,5.0,53,0.00,,,0.00,meteohub,2013-03-24 07:02:00,
2013-03-24 03:07:00,30.4,14.9,29.85,WSW,248,2.0,4.0,52,0.00,,,0.00,meteohub,2013-03-24 07:07:00,
2013-03-24 03:12:00,30.4,14.9,29.85,WSW,248,3.0,4.0,52,0.00,,,0.00,meteohub,2013-03-24 07:12:00,
2013-03-24 03:17:00,30.2,15.1,29.85,WSW,248,5.0,5.0,53,0.00,,,0.00,meteohub,2013-03-24 07:17:00,
2013-03-24 03:22:00,30.2,15.1,29.85,WNW,292,1.0,7.0,53,0.00,,,0.00,meteohub,2013-03-24 07:22:00,
2013-03-24 03:32:00,30.2,15.1,29.85,SW,225,2.0,7.0,53,0.00,,,0.00,meteohub,2013-03-24 07:32:00,
2013-03-24 03:42:00,30.4,15.3,29.85,SSW,202,1.0,6.0,53,0.00,,,0.00,meteohub,2013-03-24 07:42:00,
2013-03-24 03:47:00,30.4,15.3,29.85,SW,225,2.0,6.0,53,0.00,,,0.00,meteohub,2013-03-24 07:47:00,
2013-03-24 03:57:00,30.2,15.6,29.85,NNE,22,2.0,6.0,54,0.00,,,0.00,meteohub,2013-03-24 07:57:00,
2013-03-24 04:02:00,30.0,15.4,29.85,East,90,1.0,5.0,54,0.00,,,0.00,meteohub,2013-03-24 08:02:00,
2013-03-24 04:07:00,30.0,15.8,29.82,WSW,248,1.0,5.0,55,0.00,,,0.00,meteohub,2013-03-24 08:07:00,
2013-03-24 04:12:00,29.8,15.6,29.82,WSW,248,6.0,6.0,55,0.00,,,0.00,meteohub,2013-03-24 08:12:00,
2013-03-24 04:22:00,29.5,15.3,29.82,North,0,0.0,6.0,55,0.00,,,0.00,meteohub,2013-03-24 08:22:00,
2013-03-24 04:27:00,29.7,15.4,29.85,WNW,292,0.0,6.0,55,0.00,,,0.00,meteohub,2013-03-24 08:27:00,
2013-03-24 04:37:00,29.8,16.2,29.85,WSW,248,3.0,4.0,56,0.00,,,0.00,meteohub,2013-03-24 08:37:00,
2013-03-24 04:42:00,29.8,16.2,29.85,WNW,292,0.0,4.0,56,0.00,,,0.00,meteohub,2013-03-24 08:42:00,
2013-03-24 04:47:00,29.7,16.0,29.85,SSW,202,1.0,4.0,56,0.00,,,0.00,meteohub,2013-03-24 08:47:00,
2013-03-24 04:52:00,29.7,16.0,29.82,SE,135,1.0,6.0,56,0.00,,,0.00,meteohub,2013-03-24 08:52:00,
2013-03-24 04:57:00,29.8,16.2,29.82,SW,225,3.0,6.0,56,0.00,,,0.00,meteohub,2013-03-24 08:57:00,
2013-03-24 05:07:00,30.0,16.2,29.85,WSW,248,3.0,4.0,56,0.00,,,0.00,meteohub,2013-03-24 09:07:00,
2013-03-24 05:17:00,29.8,16.2,29.85,WSW,248,3.0,4.0,56,0.00,,,0.00,meteohub,2013-03-24 09:17:00,
2013-03-24 05:22:00,29.7,16.0,29.85,WSW,248,2.0,5.0,56,0.00,,,0.00,meteohub,2013-03-24 09:22:00,
2013-03-24 05:27:00,29.7,16.3,29.85,WNW,292,3.0,5.0,57,0.00,,,0.00,meteohub,2013-03-24 09:27:00,
2013-03-24 05:32:00,30.0,16.7,29.85,SW,225,0.0,5.0,57,0.00,,,0.00,meteohub,2013-03-24 09:32:00,
2013-03-24 05:42:00,30.4,17.1,29.85,NNW,338,3.0,3.0,57,0.00,,,0.00,meteohub,2013-03-24 09:42:00,
2013-03-24 05:47:00,30.4,17.1,29.85,WNW,292,3.0,3.0,57,0.00,,,0.00,meteohub,2013-03-24 09:47:00,
2013-03-24 05:57:00,30.2,16.9,29.85,NW,315,1.0,3.0,57,0.00,,,0.00,meteohub,2013-03-24 09:57:00,
2013-03-24 06:07:00,30.4,17.1,29.85,SW,225,0.0,3.0,57,0.00,,,0.00,meteohub,2013-03-24 10:07:00,
2013-03-24 06:12:00,30.2,16.9,29.85,WSW,248,2.0,4.0,57,0.00,,,0.00,meteohub,2013-03-24 10:12:00,
2013-03-24 06:22:00,30.0,16.7,29.88,WNW,292,4.0,4.0,57,0.00,,,0.00,meteohub,2013-03-24 10:22:00,
2013-03-24 06:27:00,30.0,16.7,29.88,SSW,202,2.0,6.0,57,0.00,,,0.00,meteohub,2013-03-24 10:27:00,
2013-03-24 06:32:00,29.8,16.5,29.88,WNW,292,3.0,6.0,57,0.00,,,0.00,meteohub,2013-03-24 10:32:00,
2013-03-24 06:37:00,29.7,16.3,29.88,WSW,248,2.0,6.0,57,0.00,,,0.00,meteohub,2013-03-24 10:37:00,
2013-03-24 06:42:00,29.7,16.3,29.88,WSW,248,2.0,3.0,57,0.00,,,0.00,meteohub,2013-03-24 10:42:00,
2013-03-24 06:47:00,29.5,16.2,29.88,West,270,3.0,3.0,57,0.00,,,0.00,meteohub,2013-03-24 10:47:00,
2013-03-24 06:52:00,29.3,16.3,29.88,West,270,2.0,4.0,58,0.00,,,0.00,meteohub,2013-03-24 10:52:00,
2013-03-24 07:02:00,29.3,16.0,29.88,West,270,2.0,4.0,57,0.00,,,0.00,meteohub,2013-03-24 11:02:00,
2013-03-24 07:07:00,29.5,16.2,29.88,SW,225,3.0,3.0,57,0.00,,,0.00,meteohub,2013-03-24 11:07:00,
2013-03-24 07:12:00,29.8,16.9,29.88,WSW,248,0.0,6.0,58,0.00,,,0.00,meteohub,2013-03-24 11:12:00,
2013-03-24 07:17:00,29.8,16.9,29.88,SW,225,2.0,6.0,58,0.00,,,0.00,meteohub,2013-03-24 11:17:00,
2013-03-24 07:27:00,29.8,16.9,29.88,WNW,292,2.0,4.0,58,0.00,,,0.00,meteohub,2013-03-24 11:27:00,
2013-03-24 07:32:00,30.0,17.1,29.88,NW,315,2.0,4.0,58,0.00,,,0.00,meteohub,2013-03-24 11:32:00,
2013-03-24 07:37:00,30.6,17.6,29.88,WNW,292,3.0,4.0,58,0.00,,,0.00,meteohub,2013-03-24 11:37:00,
2013-03-24 07:42:00,30.7,17.8,29.88,SW,225,0.0,4.0,58,0.00,,,0.00,meteohub,2013-03-24 11:42:00,
2013-03-24 07:47:00,31.1,18.1,29.88,WSW,248,3.0,5.0,58,0.00,,,0.00,meteohub,2013-03-24 11:47:00,
2013-03-24 07:57:00,31.5,18.0,29.88,SW,225,2.0,5.0,57,0.00,,,0.00,meteohub,2013-03-24 11:57:00,
2013-03-24 08:02:00,31.8,18.3,29.88,WSW,248,4.0,5.0,57,0.00,,,0.00,meteohub,2013-03-24 12:02:00,
2013-03-24 08:07:00,32.2,18.7,29.88,WNW,292,4.0,5.0,57,0.00,,,0.00,meteohub,2013-03-24 12:07:00,
2013-03-24 08:12:00,32.5,19.0,29.88,NW,315,3.0,5.0,57,0.00,,,0.00,meteohub,2013-03-24 12:12:00,
2013-03-24 08:17:00,32.7,18.9,29.88,West,270,2.0,5.0,56,0.00,,,0.00,meteohub,2013-03-24 12:17:00,
2013-03-24 08:22:00,32.9,19.0,29.88,NNW,338,3.0,6.0,56,0.00,,,0.00,meteohub,2013-03-24 12:22:00,
2013-03-24 08:27:00,33.3,19.2,29.88,WNW,292,3.0,6.0,56,0.00,,,0.00,meteohub,2013-03-24 12:27:00,
2013-03-24 08:37:00,34.2,19.2,29.85,NNW,338,3.0,4.0,54,0.00,,,0.00,meteohub,2013-03-24 12:37:00,
2013-03-24 08:47:00,35.2,19.0,29.85,North,0,4.0,10.0,51,0.00,,,0.00,meteohub,2013-03-24 12:47:00,
2013-03-24 08:57:00,35.8,19.0,29.88,WSW,248,3.0,6.0,50,0.00,,,0.00,meteohub,2013-03-24 12:57:00,
2013-03-24 09:02:00,36.3,19.0,29.88,North,0,4.0,6.0,49,0.00,,,0.00,meteohub,2013-03-24 13:02:00,
2013-03-24 09:07:00,36.5,19.8,29.88,North,0,2.0,6.0,50,0.00,,,0.00,meteohub,2013-03-24 13:07:00,
2013-03-24 09:12:00,36.9,19.6,29.88,NNW,338,4.0,6.0,49,0.00,,,0.00,meteohub,2013-03-24 13:12:00,
2013-03-24 09:17:00,37.0,19.2,29.88,NNW,338,4.0,6.0,48,0.00,,,0.00,meteohub,2013-03-24 13:17:00,
2013-03-24 09:22:00,37.6,19.2,29.88,North,0,4.0,7.0,47,0.00,,,0.00,meteohub,2013-03-24 13:22:00,
2013-03-24 09:32:00,37.8,18.9,29.88,NNW,338,4.0,7.0,46,0.00,,,0.00,meteohub,2013-03-24 13:32:00,
2013-03-24 09:37:00,38.1,19.8,29.88,WNW,292,3.0,9.0,47,0.00,,,0.00,meteohub,2013-03-24 13:37:00,
2013-03-24 09:42:00,38.8,19.9,29.88,NNW,338,4.0,9.0,46,0.00,,,0.00,meteohub,2013-03-24 13:42:00,
2013-03-24 09:52:00,41.0,20.3,29.85,NNW,338,3.0,7.0,43,0.00,,,0.00,meteohub,2013-03-24 13:52:00,
2013-03-24 09:57:00,40.8,19.6,29.85,NNE,22,5.0,7.0,42,0.00,,,0.00,meteohub,2013-03-24 13:57:00,
2013-03-24 10:07:00,41.0,19.8,29.85,NNW,338,4.0,7.0,42,0.00,,,0.00,meteohub,2013-03-24 14:07:00,
2013-03-24 10:17:00,40.8,19.6,29.85,WNW,292,3.0,6.0,42,0.00,,,0.00,meteohub,2013-03-24 14:17:00,
2013-03-24 10:22:00,41.4,20.1,29.88,NNW,338,2.0,6.0,42,0.00,,,0.00,meteohub,2013-03-24 14:22:00,
2013-03-24 10:27:00,41.5,19.0,29.88,North,0,5.0,5.0,40,0.00,,,0.00,meteohub,2013-03-24 14:27:00,
2013-03-24 10:32:00,41.5,19.6,29.88,NNE,22,4.0,7.0,41,0.00,,,0.00,meteohub,2013-03-24 14:32:00,
2013-03-24 10:37:00,41.7,19.8,29.88,NNW,338,6.0,7.0,41,0.00,,,0.00,meteohub,2013-03-24 14:37:00,
2013-03-24 10:42:00,42.1,20.1,29.88,NNW,338,3.0,7.0,41,0.00,,,0.00,meteohub,2013-03-24 14:42:00,
2013-03-24 10:47:00,42.1,19.6,29.88,North,0,4.0,8.0,40,0.00,,,0.00,meteohub,2013-03-24 14:47:00,
2013-03-24 10:52:00,42.3,20.3,29.88,North,0,3.0,8.0,41,0.00,,,0.00,meteohub,2013-03-24 14:52:00,
2013-03-24 11:02:00,43.3,20.7,29.88,North,0,3.0,6.0,40,0.00,,,0.00,meteohub,2013-03-24 15:02:00,
2013-03-24 11:07:00,43.7,21.0,29.88,NNW,338,4.0,5.0,40,0.00,,,0.00,meteohub,2013-03-24 15:07:00,
2013-03-24 11:12:00,43.7,21.0,29.88,NE,45,1.0,6.0,40,0.00,,,0.00,meteohub,2013-03-24 15:12:00,
2013-03-24 11:17:00,44.1,21.4,29.88,WNW,292,3.0,6.0,40,0.00,,,0.00,meteohub,2013-03-24 15:17:00,
2013-03-24 11:22:00,42.8,20.1,29.85,WSW,248,5.0,6.0,40,0.00,,,0.00,meteohub,2013-03-24 15:22:00,
2013-03-24 11:32:00,43.0,20.3,29.85,NNE,22,1.0,7.0,40,0.00,,,0.00,meteohub,2013-03-24 15:32:00,
2013-03-24 11:37:00,43.2,20.5,29.88,North,0,4.0,7.0,40,0.00,,,0.00,meteohub,2013-03-24 15:37:00,
2013-03-24 11:42:00,42.6,20.1,29.88,NNE,22,1.0,5.0,40,0.00,,,0.00,meteohub,2013-03-24 15:42:00,
2013-03-24 11:47:00,42.8,19.6,29.88,North,0,3.0,5.0,39,0.00,,,0.00,meteohub,2013-03-24 15:47:00,
2013-03-24 11:57:00,43.9,21.2,29.88,NNW,338,4.0,5.0,40,0.00,,,0.00,meteohub,2013-03-24 15:57:00,
2013-03-24 12:02:00,43.0,19.8,29.88,North,0,4.0,7.0,39,0.00,,,0.00,meteohub,2013-03-24 16:02:00,
2013-03-24 12:07:00,44.6,21.2,29.88,North,0,4.0,7.0,39,0.00,,,0.00,meteohub,2013-03-24 16:07:00,
2013-03-24 12:12:00,43.3,20.1,29.88,NNW,338,4.0,7.0,39,0.00,,,0.00,meteohub,2013-03-24 16:12:00,
2013-03-24 12:17:00,43.0,19.8,29.88,East,90,0.0,6.0,39,0.00,,,0.00,meteohub,2013-03-24 16:17:00,
2013-03-24 12:27:00,44.2,20.8,29.88,North,0,3.0,5.0,39,0.00,,,0.00,meteohub,2013-03-24 16:27:00,
2013-03-24 12:32:00,44.1,20.7,29.88,NNW,338,3.0,4.0,39,0.00,,,0.00,meteohub,2013-03-24 16:32:00,
2013-03-24 12:37:00,43.3,20.1,29.88,SW,225,2.0,9.0,39,0.00,,,0.00,meteohub,2013-03-24 16:37:00,
2013-03-24 12:42:00,43.7,20.5,29.88,WNW,292,2.0,9.0,39,0.00,,,0.00,meteohub,2013-03-24 16:42:00,
2013-03-24 12:47:00,45.1,21.7,29.88,NW,315,4.0,6.0,39,0.00,,,0.00,meteohub,2013-03-24 16:47:00,
2013-03-24 12:52:00,45.5,21.4,29.88,NNW,338,3.0,6.0,38,0.00,,,0.00,meteohub,2013-03-24 16:52:00,
2013-03-24 12:57:00,45.1,21.7,29.88,NW,315,4.0,6.0,39,0.00,,,0.00,meteohub,2013-03-24 16:57:00,
2013-03-24 13:02:00,45.7,22.3,29.88,NW,315,2.0,6.0,39,0.00,,,0.00,meteohub,2013-03-24 17:02:00,
2013-03-24 13:07:00,45.9,21.7,29.85,North,0,5.0,5.0,38,0.00,,,0.00,meteohub,2013-03-24 17:07:00,
2013-03-24 13:12:00,44.2,20.8,29.85,North,0,4.0,6.0,39,0.00,,,0.00,meteohub,2013-03-24 17:12:00,
2013-03-24 13:22:00,45.5,21.4,29.85,North,0,4.0,7.0,38,0.00,,,0.00,meteohub,2013-03-24 17:22:00,
2013-03-24 13:27:00,44.4,21.0,29.85,NW,315,3.0,7.0,39,0.00,,,0.00,meteohub,2013-03-24 17:27:00,
2013-03-24 13:32:00,43.7,20.5,29.85,NE,45,6.0,7.0,39,0.00,,,0.00,meteohub,2013-03-24 17:32:00,
2013-03-24 13:37:00,44.2,20.8,29.85,NNW,338,2.0,6.0,39,0.00,,,0.00,meteohub,2013-03-24 17:37:00,
2013-03-24 13:42:00,44.8,20.8,29.85,NW,315,4.0,6.0,38,0.00,,,0.00,meteohub,2013-03-24 17:42:00,
2013-03-24 13:47:00,44.6,20.7,29.85,NW,315,4.0,8.0,38,0.00,,,0.00,meteohub,2013-03-24 17:47:00,
2013-03-24 13:52:00,45.0,21.0,29.85,East,90,6.0,8.0,38,0.00,,,0.00,meteohub,2013-03-24 17:52:00,
2013-03-24 14:02:00,45.7,21.6,29.85,NNE,22,3.0,8.0,38,0.00,,,0.00,meteohub,2013-03-24 18:02:00,
2013-03-24 14:07:00,46.2,22.1,29.82,WNW,292,2.0,8.0,38,0.00,,,0.00,meteohub,2013-03-24 18:07:00,
2013-03-24 14:12:00,46.2,22.1,29.82,NNW,338,4.0,8.0,38,0.00,,,0.00,meteohub,2013-03-24 18:12:00,
2013-03-24 14:17:00,46.0,21.9,29.82,North,0,6.0,9.0,38,0.00,,,0.00,meteohub,2013-03-24 18:17:00,
2013-03-24 14:22:00,46.0,21.9,29.85,North,0,5.0,9.0,38,0.00,,,0.00,meteohub,2013-03-24 18:22:00,
2013-03-24 14:32:00,45.9,21.7,29.85,NNW,338,4.0,6.0,38,0.00,,,0.00,meteohub,2013-03-24 18:32:00,
2013-03-24 14:37:00,45.9,21.7,29.82,NNW,338,3.0,5.0,38,0.00,,,0.00,meteohub,2013-03-24 18:37:00,
2013-03-24 14:47:00,46.8,22.5,29.82,North,0,6.0,6.0,38,0.00,,,0.00,meteohub,2013-03-24 18:47:00,
2013-03-24 14:57:00,46.8,21.9,29.82,North,0,4.0,7.0,37,0.00,,,0.00,meteohub,2013-03-24 18:57:00,
2013-03-24 15:07:00,46.0,21.9,29.82,NNW,338,6.0,9.0,38,0.00,,,0.00,meteohub,2013-03-24 19:07:00,
2013-03-24 15:17:00,45.7,21.6,29.82,NNW,338,3.0,6.0,38,0.00,,,0.00,meteohub,2013-03-24 19:17:00,
2013-03-24 15:27:00,45.5,21.4,29.82,NNE,22,1.0,7.0,38,0.00,,,0.00,meteohub,2013-03-24 19:27:00,
2013-03-24 15:32:00,45.5,21.4,29.82,NNW,338,1.0,4.0,38,0.00,,,0.00,meteohub,2013-03-24 19:32:00,
2013-03-24 15:42:00,44.8,20.8,29.85,NW,315,3.0,4.0,38,0.00,,,0.00,meteohub,2013-03-24 19:42:00,
2013-03-24 15:47:00,44.6,20.7,29.85,NNE,22,1.0,4.0,38,0.00,,,0.00,meteohub,2013-03-24 19:47:00,
2013-03-24 15:52:00,44.6,20.7,29.82,NNE,22,6.0,6.0,38,0.00,,,0.00,meteohub,2013-03-24 19:52:00,
2013-03-24 15:57:00,44.6,20.7,29.82,NNW,338,3.0,6.0,38,0.00,,,0.00,meteohub,2013-03-24 19:57:00,
2013-03-24 16:02:00,44.6,20.7,29.82,NNE,22,4.0,6.0,38,0.00,,,0.00,meteohub,2013-03-24 20:02:00,
2013-03-24 16:12:00,44.2,20.8,29.82,NNW,338,3.0,6.0,39,0.00,,,0.00,meteohub,2013-03-24 20:12:00,
2013-03-24 16:22:00,44.4,20.5,29.82,NNW,338,4.0,6.0,38,0.00,,,0.00,meteohub,2013-03-24 20:22:00,
2013-03-24 16:27:00,44.2,20.3,29.82,NNW,338,2.0,5.0,38,0.00,,,0.00,meteohub,2013-03-24 20:27:00,
2013-03-24 16:32:00,44.2,20.3,29.82,NNE,22,2.0,6.0,38,0.00,,,0.00,meteohub,2013-03-24 20:32:00,
2013-03-24 16:42:00,44.1,20.1,29.79,North,0,2.0,6.0,38,0.00,,,0.00,meteohub,2013-03-24 20:42:00,
2013-03-24 16:47:00,44.1,20.1,29.79,North,0,2.0,6.0,38,0.00,,,0.00,meteohub,2013-03-24 20:47:00,
2013-03-24 16:52:00,43.9,20.7,29.82,East,90,1.0,6.0,39,0.00,,,0.00,meteohub,2013-03-24 20:52:00,
2013-03-24 17:02:00,43.7,20.5,29.82,NNW,338,2.0,6.0,39,0.00,,,0.00,meteohub,2013-03-24 21:02:00,
2013-03-24 17:07:00,43.5,20.3,29.82,NE,45,4.0,5.0,39,0.00,,,0.00,meteohub,2013-03-24 21:07:00,
2013-03-24 17:12:00,43.7,20.5,29.82,NNW,338,3.0,5.0,39,0.00,,,0.00,meteohub,2013-03-24 21:12:00,
2013-03-24 17:22:00,43.5,20.3,29.82,NNW,338,2.0,6.0,39,0.00,,,0.00,meteohub,2013-03-24 21:22:00,
2013-03-24 17:27:00,43.3,20.1,29.82,NE,45,1.0,8.0,39,0.00,,,0.00,meteohub,2013-03-24 21:27:00,
2013-03-24 17:32:00,43.2,19.9,29.82,North,0,3.0,8.0,39,0.00,,,0.00,meteohub,2013-03-24 21:32:00,
2013-03-24 17:37:00,43.0,19.8,29.82,North,0,2.0,6.0,39,0.00,,,0.00,meteohub,2013-03-24 21:37:00,
2013-03-24 17:42:00,43.0,19.8,29.82,North,0,3.0,4.0,39,0.00,,,0.00,meteohub,2013-03-24 21:42:00,
2013-03-24 17:47:00,43.0,19.8,29.82,North,0,2.0,4.0,39,0.00,,,0.00,meteohub,2013-03-24 21:47:00,
2013-03-24 17:57:00,42.8,19.6,29.82,NNW,338,2.0,4.0,39,0.00,,,0.00,meteohub,2013-03-24 21:57:00,
2013-03-24 18:02:00,42.8,19.6,29.82,North,0,0.0,3.0,39,0.00,,,0.00,meteohub,2013-03-24 22:02:00,
2013-03-24 18:12:00,42.1,19.0,29.79,NNW,338,2.0,3.0,39,0.00,,,0.00,meteohub,2013-03-24 22:12:00,
2013-03-24 18:17:00,42.3,19.0,29.79,ENE,68,2.0,3.0,39,0.00,,,0.00,meteohub,2013-03-24 22:17:00,
2013-03-24 18:27:00,41.5,18.5,29.85,ENE,68,2.0,3.0,39,0.00,,,0.00,meteohub,2013-03-24 22:27:00,
2013-03-24 18:32:00,41.5,18.5,29.85,NNE,22,0.0,3.0,39,0.00,,,0.00,meteohub,2013-03-24 22:32:00,
2013-03-24 18:37:00,41.4,18.9,29.79,NNW,338,3.0,3.0,40,0.00,,,0.00,meteohub,2013-03-24 22:37:00,
2013-03-24 18:47:00,40.8,18.5,29.79,ENE,68,0.0,3.0,40,0.00,,,0.00,meteohub,2013-03-24 22:47:00,
2013-03-24 18:52:00,40.6,18.3,29.85,North,0,0.0,3.0,40,0.00,,,0.00,meteohub,2013-03-24 22:52:00,
2013-03-24 18:57:00,40.5,18.1,29.85,NE,45,1.0,2.0,40,0.00,,,0.00,meteohub,2013-03-24 22:57:00,
2013-03-24 19:07:00,40.3,18.0,29.85,NNE,22,1.0,3.0,40,0.00,,,0.00,meteohub,2013-03-24 23:07:00,
2013-03-24 19:12:00,40.1,17.8,29.85,NNW,338,2.0,3.0,40,0.00,,,0.00,meteohub,2013-03-24 23:12:00,
2013-03-24 19:17:00,39.9,18.1,29.85,NNW,338,0.0,3.0,41,0.00,,,0.00,meteohub,2013-03-24 23:17:00,
2013-03-24 19:27:00,39.2,17.6,29.82,NE,45,1.0,2.0,41,0.00,,,0.00,meteohub,2013-03-24 23:27:00,
2013-03-24 19:32:00,39.0,17.4,29.82,ENE,68,0.0,2.0,41,0.00,,,0.00,meteohub,2013-03-24 23:32:00,
2013-03-24 19:37:00,39.0,17.4,29.82,NE,45,0.0,1.0,41,0.00,,,0.00,meteohub,2013-03-24 23:37:00,
2013-03-24 19:42:00,38.8,17.2,29.82,ENE,68,0.0,1.0,41,0.00,,,0.00,meteohub,2013-03-24 23:42:00,
2013-03-24 19:52:00,38.3,17.2,29.79,ESE,112,0.0,0.0,42,0.00,,,0.00,meteohub,2013-03-24 23:52:00,
2013-03-24 19:57:00,37.9,16.9,29.79,East,90,0.0,0.0,42,0.00,,,0.00,meteohub,2013-03-24 23:57:00,
2013-03-24 20:02:00,37.8,16.7,29.79,East,90,0.0,0.0,42,0.00,,,0.00,meteohub,2013-03-25 00:02:00,
2013-03-24 20:07:00,37.4,16.5,29.79,ENE,68,0.0,0.0,42,0.00,,,0.00,meteohub,2013-03-25 00:07:00,
2013-03-24 20:17:00,37.0,16.7,29.79,East,90,0.0,0.0,43,0.00,,,0.00,meteohub,2013-03-25 00:17:00,
2013-03-24 20:22:00,36.9,16.5,29.82,ENE,68,0.0,0.0,43,0.00,,,0.00,meteohub,2013-03-25 00:22:00,
2013-03-24 20:27:00,36.7,16.9,29.82,East,90,0.0,0.0,44,0.00,,,0.00,meteohub,2013-03-25 00:27:00,
2013-03-24 20:32:00,36.3,16.5,29.82,East,90,0.0,0.0,44,0.00,,,0.00,meteohub,2013-03-25 00:32:00,
2013-03-24 20:37:00,36.1,16.3,29.82,East,90,0.0,0.0,44,0.00,,,0.00,meteohub,2013-03-25 00:37:00,
2013-03-24 20:42:00,36.1,16.9,29.82,East,90,0.0,0.0,45,0.00,,,0.00,meteohub,2013-03-25 00:42:00,
2013-03-24 20:47:00,36.0,16.7,29.82,East,90,0.0,0.0,45,0.00,,,0.00,meteohub,2013-03-25 00:47:00,
2013-03-24 20:57:00,35.6,16.9,29.82,East,90,0.0,0.0,46,0.00,,,0.00,meteohub,2013-03-25 00:57:00,
2013-03-24 21:02:00,35.6,16.9,29.82,SSE,158,0.0,0.0,46,0.00,,,0.00,meteohub,2013-03-25 01:02:00,
2013-03-24 21:07:00,35.4,17.2,29.82,SSE,158,0.0,0.0,47,0.00,,,0.00,meteohub,2013-03-25 01:07:00,
2013-03-24 21:12:00,35.4,17.8,29.85,SSE,158,0.0,0.0,48,0.00,,,0.00,meteohub,2013-03-25 01:12:00,
2013-03-24 21:17:00,35.2,18.0,29.85,SSE,158,0.0,0.0,49,0.00,,,0.00,meteohub,2013-03-25 01:17:00,
2013-03-24 21:22:00,35.1,18.3,29.85,SE,135,0.0,0.0,50,0.00,,,0.00,meteohub,2013-03-25 01:22:00,
2013-03-24 21:27:00,35.1,18.3,29.85,SSE,158,1.0,1.0,50,0.00,,,0.00,meteohub,2013-03-25 01:27:00,
2013-03-24 21:32:00,34.9,18.1,29.85,SSE,158,0.0,1.0,50,0.00,,,0.00,meteohub,2013-03-25 01:32:00,
2013-03-24 21:37:00,34.7,18.5,29.85,SE,135,0.0,1.0,51,0.00,,,0.00,meteohub,2013-03-25 01:37:00,
2013-03-24 21:42:00,34.5,18.3,29.85,SSE,158,0.0,1.0,51,0.00,,,0.00,meteohub,2013-03-25 01:42:00,
2013-03-24 21:47:00,34.3,18.5,29.85,SSE,158,0.0,0.0,52,0.00,,,0.00,meteohub,2013-03-25 01:47:00,
2013-03-24 21:52:00,34.0,18.3,29.85,SE,135,0.0,0.0,52,0.00,,,0.00,meteohub,2013-03-25 01:52:00,
2013-03-24 21:57:00,34.0,18.3,29.85,ESE,112,0.0,0.0,52,0.00,,,0.00,meteohub,2013-03-25 01:57:00,
2013-03-24 22:02:00,33.8,18.5,29.85,ESE,112,0.0,0.0,53,0.00,,,0.00,meteohub,2013-03-25 02:02:00,
2013-03-24 22:07:00,33.6,18.3,29.85,ESE,112,0.0,0.0,53,0.00,,,0.00,meteohub,2013-03-25 02:07:00,
2013-03-24 22:12:00,33.6,18.3,29.85,SE,135,0.0,0.0,53,0.00,,,0.00,meteohub,2013-03-25 02:12:00,
2013-03-24 22:17:00,33.6,18.3,29.85,ESE,112,0.0,0.0,53,0.00,,,0.00,meteohub,2013-03-25 02:17:00,
2013-03-24 22:22:00,33.3,18.0,29.85,SE,135,0.0,0.0,53,0.00,,,0.00,meteohub,2013-03-25 02:22:00,
2013-03-24 22:27:00,33.3,18.5,29.85,ESE,112,0.0,0.0,54,0.00,,,0.00,meteohub,2013-03-25 02:27:00,
2013-03-24 22:37:00,32.9,18.5,29.85,SSW,202,0.0,0.0,55,0.00,,,0.00,meteohub,2013-03-25 02:37:00,
2013-03-24 22:42:00,32.7,18.9,29.85,SSW,202,0.0,0.0,56,0.00,,,0.00,meteohub,2013-03-25 02:42:00,
2013-03-24 22:47:00,32.5,19.0,29.85,South,180,0.0,0.0,57,0.00,,,0.00,meteohub,2013-03-25 02:47:00,
2013-03-24 22:52:00,32.5,19.0,29.85,SE,135,0.0,0.0,57,0.00,,,0.00,meteohub,2013-03-25 02:52:00,
2013-03-24 22:57:00,32.5,18.7,29.85,SSE,158,0.0,0.0,56,0.00,,,0.00,meteohub,2013-03-25 02:57:00,
2013-03-24 23:02:00,32.4,19.2,29.85,SSE,158,0.0,0.0,58,0.00,,,0.00,meteohub,2013-03-25 03:02:00,
2013-03-24 23:07:00,32.4,19.8,29.85,SSE,158,0.0,0.0,59,0.00,,,0.00,meteohub,2013-03-25 03:07:00,
2013-03-24 23:12:00,32.2,19.0,29.85,SSE,158,0.0,0.0,58,0.00,,,0.00,meteohub,2013-03-25 03:12:00,
2013-03-24 23:17:00,32.2,19.9,29.85,SSE,158,0.0,0.0,60,0.00,,,0.00,meteohub,2013-03-25 03:17:00,
2013-03-24 23:22:00,32.2,19.9,29.85,SSE,158,0.0,0.0,60,0.00,,,0.00,meteohub,2013-03-25 03:22:00,
2013-03-24 23:32:00,32.2,19.0,29.85,SSE,158,0.0,2.0,58,0.00,,,0.00,meteohub,2013-03-25 03:32:00,
2013-03-24 23:42:00,32.0,19.8,29.82,ENE,68,0.0,2.0,60,0.00,,,0.00,meteohub,2013-03-25 03:42:00,
2013-03-24 23:47:00,32.2,19.6,29.82,SE,135,0.0,1.0,59,0.00,,,0.00,meteohub,2013-03-25 03:47:00,
2013-03-24 23:52:00,32.2,19.6,29.82,ESE,112,0.0,1.0,59,0.00,,,0.00,meteohub,2013-03-25 03:52:00,
2013-03-24 23:57:00,32.2,19.9,29.82,ESE,112,0.0,1.0,60,0.00,,,0.00,meteohub,2013-03-25 03:57:00,